createdAt,value
2023-04-27T00:02:16.074Z,4.53
2023-04-27T00:04:43.403Z,4.82
2023-04-27T00:07:10.763Z,4.72
2023-04-27T00:09:37.877Z,4.40
2023-04-27T00:12:05.289Z,4.68
2023-04-27T00:14:32.397Z,3.92
2023-04-27T00:16:59.541Z,4.28
2023-04-27T00:19:26.581Z,3.72
2023-04-27T00:21:53.788Z,4.18
2023-04-27T00:24:20.978Z,4.15
2023-04-27T00:26:48.009Z,3.78
2023-04-27T00:29:15.383Z,4.68
2023-04-27T00:31:42.827Z,4.10
2023-04-27T00:34:10.059Z,3.80
2023-04-27T00:36:37.161Z,3.83
2023-04-27T00:39:04.852Z,5.18
2023-04-27T00:41:32.870Z,4.90
2023-04-27T00:44:00.157Z,4.78
2023-04-27T00:46:28.234Z,4.90
2023-04-27T00:48:56.507Z,5.13
2023-04-27T00:51:28.250Z,4.68
2023-04-27T00:53:56.556Z,4.68
2023-04-27T00:56:24.045Z,4.40
2023-04-27T00:58:51.153Z,5.13
2023-04-27T01:01:20.779Z,5.30
2023-04-27T01:03:48.783Z,8.38
2023-04-27T01:06:16.215Z,6.35
2023-04-27T01:08:44.379Z,4.90
2023-04-27T01:11:11.594Z,4.88
2023-04-27T01:13:38.705Z,5.85
2023-04-27T01:16:06.406Z,4.82
2023-04-27T01:18:33.913Z,4.53
2023-04-27T01:21:01.437Z,4.78
2023-04-27T01:23:28.802Z,5.50
2023-04-27T01:25:56.141Z,5.97
2023-04-27T01:28:23.377Z,4.38
2023-04-27T01:30:50.687Z,4.43
2023-04-27T01:33:17.865Z,4.55
2023-04-27T01:35:45.044Z,4.63
2023-04-27T01:38:12.882Z,4.18
2023-04-27T01:40:40.082Z,4.88
2023-04-27T01:43:07.265Z,4.45
2023-04-27T01:45:34.295Z,4.22
2023-04-27T01:48:01.566Z,3.58
2023-04-27T01:50:28.782Z,3.63
2023-04-27T01:52:55.985Z,3.45
2023-04-27T01:55:23.151Z,3.60
2023-04-27T01:57:50.212Z,4.30
2023-04-27T02:00:17.859Z,3.78
2023-04-27T02:02:45.681Z,3.50
2023-04-27T02:05:13.119Z,4.38
2023-04-27T02:07:40.247Z,4.82
2023-04-27T02:10:07.913Z,4.68
2023-04-27T02:12:35.071Z,5.28
2023-04-27T02:15:03.777Z,5.03
2023-04-27T02:17:31.868Z,4.47
2023-04-27T02:19:59.143Z,5.25
2023-04-27T02:22:26.216Z,4.63
2023-04-27T02:24:53.412Z,4.18
2023-04-27T02:27:20.448Z,4.20
2023-04-27T02:29:48.122Z,4.18
2023-04-27T02:32:15.842Z,4.28
2023-04-27T02:34:43.167Z,4.20
2023-04-27T02:37:10.333Z,4.30
2023-04-27T02:39:37.916Z,4.00
2023-04-27T02:42:05.091Z,4.10
2023-04-27T02:44:32.289Z,3.53
2023-04-27T02:46:59.557Z,3.80
2023-04-27T02:49:26.742Z,3.00
2023-04-27T02:51:53.876Z,2.95
2023-04-27T02:54:21.044Z,2.97
2023-04-27T02:56:48.205Z,2.72
2023-04-27T02:59:15.836Z,2.78
2023-04-27T03:01:43.228Z,2.75
2023-04-27T03:04:11.026Z,3.28
2023-04-27T03:06:38.207Z,3.10
2023-04-27T03:09:05.544Z,2.50
2023-04-27T03:11:32.762Z,2.75
2023-04-27T03:13:59.868Z,3.10
2023-04-27T03:16:26.997Z,3.20
2023-04-27T03:18:54.208Z,2.85
2023-04-27T03:21:21.309Z,3.35
2023-04-27T03:23:48.486Z,3.33
2023-04-27T03:26:15.639Z,3.30
2023-04-27T03:28:42.889Z,3.03
2023-04-27T03:31:11.830Z,3.15
2023-04-27T03:33:39.784Z,4.82
2023-04-27T03:36:08.105Z,5.32
2023-04-27T03:38:35.821Z,7.90
2023-04-27T03:41:03.097Z,5.68
2023-04-27T03:43:30.682Z,7.07
2023-04-27T03:45:57.936Z,6.90
2023-04-27T03:48:25.124Z,7.20
2023-04-27T03:50:52.352Z,7.53
2023-04-27T03:53:19.743Z,7.30
2023-04-27T03:55:47.895Z,6.63
2023-04-27T03:58:15.174Z,7.63
2023-04-27T04:00:42.366Z,6.30
2023-04-27T04:03:09.893Z,5.28
2023-04-27T04:05:37.200Z,5.45
2023-04-27T04:08:04.657Z,5.47
2023-04-27T04:10:31.886Z,5.82
2023-04-27T04:12:59.029Z,6.70
2023-04-27T04:15:26.153Z,6.97
2023-04-27T04:17:53.548Z,6.95
2023-04-27T04:20:20.766Z,7.30
2023-04-27T04:22:48.292Z,6.82
2023-04-27T04:25:15.658Z,6.68
2023-04-27T04:27:42.919Z,6.47
2023-04-27T04:30:10.836Z,6.65
2023-04-27T04:32:38.230Z,6.50
2023-04-27T04:35:06.269Z,7.68
2023-04-27T04:37:35.652Z,6.25
2023-04-27T04:40:09.673Z,6.50
2023-04-27T04:42:38.220Z,6.43
2023-04-27T04:45:06.273Z,5.53
2023-04-27T04:47:34.562Z,4.82
2023-04-27T04:50:02.394Z,5.55
2023-04-27T04:52:29.708Z,4.50
2023-04-27T04:54:56.968Z,4.40
2023-04-27T04:57:24.179Z,3.92
2023-04-27T04:59:51.354Z,3.20
2023-04-27T05:02:18.844Z,3.67
2023-04-27T05:04:46.428Z,3.03
2023-04-27T05:07:15.289Z,3.03
2023-04-27T05:09:43.260Z,2.92
2023-04-27T05:12:10.716Z,3.90
2023-04-27T05:14:38.042Z,5.13
2023-04-27T05:17:05.177Z,4.20
2023-04-27T05:19:32.331Z,3.25
2023-04-27T05:21:59.848Z,3.80
2023-04-27T05:24:27.524Z,4.72
2023-04-27T05:26:55.112Z,4.10
2023-04-27T05:29:23.075Z,3.50
2023-04-27T05:31:50.356Z,3.13
2023-04-27T05:34:17.632Z,3.17
2023-04-27T05:36:44.816Z,3.72
2023-04-27T05:39:12.349Z,3.60
2023-04-27T05:41:39.954Z,3.30
2023-04-27T05:44:07.425Z,3.20
2023-04-27T05:46:35.383Z,4.82
2023-04-27T05:49:04.203Z,4.13
2023-04-27T05:51:33.584Z,3.78
2023-04-27T05:54:02.132Z,3.80
2023-04-27T05:56:29.454Z,3.30
2023-04-27T05:58:56.612Z,3.85
2023-04-27T06:01:24.027Z,3.47
2023-04-27T06:03:51.294Z,3.60
2023-04-27T06:06:18.660Z,3.10
2023-04-27T06:08:45.935Z,3.22
2023-04-27T06:11:13.174Z,3.38
2023-04-27T06:13:40.293Z,3.20
2023-04-27T06:16:07.541Z,4.30
2023-04-27T06:18:34.641Z,3.53
2023-04-27T06:21:02.249Z,3.45
2023-04-27T06:23:29.823Z,3.10
2023-04-27T06:25:57.539Z,3.33
2023-04-27T06:28:24.668Z,3.33
2023-04-27T06:30:51.762Z,3.60
2023-04-27T06:33:18.990Z,3.45
2023-04-27T06:35:47.510Z,3.78
2023-04-27T06:38:14.981Z,3.70
2023-04-27T06:40:42.336Z,3.90
2023-04-27T06:43:09.488Z,3.15
2023-04-27T06:45:36.654Z,3.05
2023-04-27T06:48:03.999Z,2.70
2023-04-27T06:50:31.387Z,2.72
2023-04-27T06:52:58.466Z,2.75
2023-04-27T06:55:25.840Z,2.63
2023-04-27T06:57:53.016Z,2.83
2023-04-27T07:00:20.492Z,2.50
2023-04-27T07:02:47.780Z,3.03
2023-04-27T07:05:14.978Z,2.63
2023-04-27T07:07:42.159Z,2.90
2023-04-27T07:10:09.670Z,2.25
2023-04-27T07:12:37.890Z,2.83
2023-04-27T07:15:06.688Z,2.55
2023-04-27T07:17:34.099Z,2.60
2023-04-27T07:20:06.305Z,2.58
2023-04-27T07:22:34.035Z,2.83
2023-04-27T07:25:01.309Z,2.40
2023-04-27T07:27:28.473Z,2.47
2023-04-27T07:29:55.731Z,2.80
2023-04-27T07:32:22.982Z,2.47
2023-04-27T07:34:54.004Z,2.65
2023-04-27T07:37:22.896Z,2.67
2023-04-27T07:39:52.359Z,3.55
2023-04-27T07:42:20.372Z,2.90
2023-04-27T07:44:47.637Z,2.58
2023-04-27T07:47:14.704Z,2.90
2023-04-27T07:49:41.987Z,2.67
2023-04-27T07:52:09.146Z,2.95
2023-04-27T07:54:36.249Z,3.35
2023-04-27T07:57:10.379Z,3.00
2023-04-27T07:59:38.411Z,3.20
2023-04-27T08:02:18.260Z,3.30
2023-04-27T08:04:47.396Z,3.42
2023-04-27T08:07:17.452Z,3.22
2023-04-27T08:09:45.121Z,3.42
2023-04-27T08:12:12.311Z,3.35
2023-04-27T08:14:39.497Z,3.05
2023-04-27T08:17:07.088Z,2.75
2023-04-27T08:19:34.497Z,3.40
2023-04-27T08:22:01.707Z,3.28
2023-04-27T08:24:28.890Z,2.55
2023-04-27T08:26:56.080Z,1.88
2023-04-27T08:29:27.700Z,1.90
2023-04-27T08:34:26.509Z,1.73
2023-04-27T08:36:54.430Z,1.90
2023-04-27T08:39:22.011Z,1.60
2023-04-27T08:41:49.289Z,2.13
2023-04-27T08:44:16.675Z,1.80
2023-04-27T08:46:44.019Z,1.08
2023-04-27T08:49:12.320Z,1.73
2023-04-27T08:51:40.996Z,2.03
2023-04-27T08:54:08.296Z,1.50
2023-04-27T08:56:35.713Z,1.65
2023-04-27T08:59:04.718Z,1.80
2023-04-27T09:01:34.601Z,2.15
2023-04-27T09:04:03.699Z,2.20
2023-04-27T09:06:36.782Z,2.00
2023-04-27T09:09:04.700Z,2.05
2023-04-27T09:11:32.774Z,1.85
2023-04-27T09:14:01.686Z,1.63
2023-04-27T09:16:30.507Z,2.00
2023-04-27T09:18:58.628Z,2.30
2023-04-27T09:21:28.114Z,2.15
2023-04-27T09:23:56.258Z,2.10
2023-04-27T09:26:28.191Z,1.98
2023-04-27T09:28:59.504Z,2.10
2023-04-27T09:31:34.478Z,1.80
2023-04-27T09:34:02.575Z,2.33
2023-04-27T09:36:32.531Z,2.30
2023-04-27T09:39:06.873Z,1.83
2023-04-27T09:41:34.308Z,2.65
2023-04-27T09:44:02.113Z,2.88
2023-04-27T09:46:33.488Z,4.00
2023-04-27T09:49:04.594Z,3.03
2023-04-27T09:51:32.177Z,2.58
2023-04-27T09:54:03.213Z,2.17
2023-04-27T09:56:42.523Z,1.70
2023-04-27T09:59:32.880Z,1.83
2023-04-27T10:02:10.007Z,1.73
2023-04-27T10:05:21.721Z,1.40
2023-04-27T10:07:50.412Z,1.85
2023-04-27T10:10:18.993Z,1.60
2023-04-27T10:12:57.711Z,1.35
2023-04-27T10:15:30.349Z,1.80
2023-04-27T10:20:36.739Z,1.20
2023-04-27T10:23:04.692Z,1.38
2023-04-27T10:25:40.663Z,1.60
2023-04-27T10:28:09.185Z,1.27
2023-04-27T10:30:39.546Z,1.30
2023-04-27T10:33:09.705Z,1.77
2023-04-27T10:35:41.784Z,1.45
2023-04-27T10:38:21.886Z,1.17
2023-04-27T10:41:03.355Z,1.10
2023-04-27T10:43:32.689Z,1.60
2023-04-27T10:46:12.643Z,1.58
2023-04-27T10:48:42.304Z,1.30
2023-04-27T10:51:09.762Z,1.60
2023-04-27T10:53:37.746Z,1.70
2023-04-27T10:56:07.266Z,1.80
2023-04-27T11:01:09.567Z,1.90
2023-04-27T11:03:37.800Z,2.08
2023-04-27T11:06:07.055Z,1.83
2023-04-27T11:08:43.699Z,1.90
2023-04-27T11:11:17.332Z,1.98
2023-04-27T11:13:45.202Z,1.67
2023-04-27T11:16:12.420Z,1.70
2023-04-27T11:18:39.832Z,1.42
2023-04-27T11:21:11.390Z,1.80
2023-04-27T11:23:40.090Z,1.70
2023-04-27T11:26:17.607Z,1.63
2023-04-27T11:28:57.056Z,1.35
2023-04-27T11:31:24.539Z,1.40
2023-04-27T11:33:52.491Z,1.60
2023-04-27T11:36:22.364Z,1.90
2023-04-27T11:38:49.748Z,1.20
2023-04-27T11:41:17.862Z,1.50
2023-04-27T11:43:49.732Z,1.73
2023-04-27T11:46:21.671Z,1.92
2023-04-27T11:48:49.745Z,1.87
2023-04-27T11:51:17.048Z,1.55
2023-04-27T11:53:48.616Z,1.73
2023-04-27T11:56:15.836Z,1.52
2023-04-27T11:58:46.362Z,2.13
2023-04-27T12:01:14.107Z,1.50
2023-04-27T12:03:42.730Z,1.58
2023-04-27T12:06:31.706Z,1.50
2023-04-27T12:08:58.928Z,1.58
2023-04-27T12:11:28.912Z,1.80
2023-04-27T12:13:57.093Z,1.60
2023-04-27T12:16:24.513Z,1.60
2023-04-27T12:18:51.997Z,1.85
2023-04-27T12:21:19.366Z,1.48
2023-04-27T12:23:46.607Z,1.38
2023-04-27T12:26:15.330Z,1.48
2023-04-27T12:28:42.968Z,1.38
2023-04-27T12:31:16.588Z,1.80
2023-04-27T12:33:43.987Z,1.80
2023-04-27T12:36:11.166Z,1.35
2023-04-27T12:38:38.384Z,1.27
2023-04-27T12:41:05.925Z,1.30
2023-04-27T12:43:33.410Z,1.40
2023-04-27T12:46:00.592Z,1.40
2023-04-27T12:48:27.915Z,1.60
2023-04-27T12:50:55.161Z,1.27
2023-04-27T12:53:22.508Z,1.38
2023-04-27T12:55:49.828Z,1.60
2023-04-27T12:58:17.135Z,1.08
2023-04-27T13:00:44.270Z,1.58
2023-04-27T13:03:11.551Z,1.60
2023-04-27T13:05:38.914Z,1.10
2023-04-27T13:08:06.050Z,1.02
2023-04-27T13:10:33.306Z,1.00
2023-04-27T13:13:01.431Z,1.20
2023-04-27T13:15:28.994Z,0.85
2023-04-27T13:17:58.373Z,1.40
2023-04-27T13:20:25.793Z,1.55
2023-04-27T13:22:52.909Z,1.25
2023-04-27T13:25:21.107Z,1.65
2023-04-27T13:27:48.413Z,1.30
2023-04-27T13:30:15.782Z,1.35
2023-04-27T13:32:43.024Z,1.85
2023-04-27T13:35:10.830Z,2.20
2023-04-27T13:37:38.033Z,1.40
2023-04-27T13:40:06.757Z,1.67
2023-04-27T13:42:33.968Z,1.60
2023-04-27T13:45:01.184Z,1.63
2023-04-27T13:47:30.144Z,2.53
2023-04-27T13:49:57.373Z,1.40
2023-04-27T13:52:24.680Z,1.40
2023-04-27T13:54:51.885Z,2.00
2023-04-27T13:57:19.300Z,2.22
2023-04-27T13:59:46.598Z,1.58
2023-04-27T14:02:13.903Z,2.00
2023-04-27T14:04:41.252Z,1.45
2023-04-27T14:07:08.542Z,1.35
2023-04-27T14:09:35.662Z,1.60
2023-04-27T14:12:03.000Z,1.65
2023-04-27T14:14:30.189Z,1.50
2023-04-27T14:16:57.840Z,1.63
2023-04-27T14:19:25.530Z,1.88
2023-04-27T14:21:52.673Z,1.80
2023-04-27T14:24:20.070Z,1.83
2023-04-27T14:26:48.981Z,1.58
2023-04-27T14:29:16.300Z,1.40
2023-04-27T14:31:44.733Z,1.40
2023-04-27T14:34:12.096Z,1.40
2023-04-27T14:36:39.224Z,1.52
2023-04-27T14:39:07.430Z,1.40
2023-04-27T14:41:36.131Z,1.50
2023-04-27T14:44:04.938Z,1.35
2023-04-27T14:46:32.269Z,1.20
2023-04-27T14:48:59.564Z,1.40
2023-04-27T14:51:26.805Z,1.63
2023-04-27T14:53:53.834Z,1.40
2023-04-27T14:56:23.397Z,1.35
2023-04-27T14:58:50.609Z,1.15
2023-04-27T15:01:18.161Z,1.20
2023-04-27T15:03:45.890Z,2.10
2023-04-27T15:06:14.002Z,1.63
2023-04-27T15:08:41.192Z,0.90
2023-04-27T15:11:08.378Z,1.27
2023-04-27T15:13:35.807Z,1.77
2023-04-27T15:16:05.119Z,1.77
2023-04-27T15:18:32.241Z,2.42
2023-04-27T15:21:00.167Z,1.48
2023-04-27T15:23:28.424Z,1.70
2023-04-27T15:25:57.013Z,1.35
2023-04-27T15:28:24.502Z,1.83
2023-04-27T15:30:51.912Z,1.70
2023-04-27T15:33:19.365Z,1.25
2023-04-27T15:35:46.558Z,2.00
2023-04-27T15:38:15.309Z,1.48
2023-04-27T15:40:42.553Z,1.45
2023-04-27T15:43:09.670Z,1.55
2023-04-27T15:45:36.784Z,2.17
2023-04-27T15:48:04.068Z,2.10
2023-04-27T15:50:31.572Z,1.40
2023-04-27T15:52:58.813Z,1.73
2023-04-27T15:55:26.030Z,1.75
2023-04-27T15:57:53.824Z,1.70
2023-04-27T16:00:22.624Z,1.90
2023-04-27T16:02:50.297Z,1.98
2023-04-27T16:05:17.791Z,1.73
2023-04-27T16:07:45.940Z,1.60
2023-04-27T16:10:13.588Z,1.92
2023-04-27T16:12:41.245Z,1.92
2023-04-27T16:15:10.939Z,1.52
2023-04-27T16:17:39.162Z,2.00
2023-04-27T16:20:07.296Z,1.77
2023-04-27T16:22:39.089Z,1.70
2023-04-27T16:25:12.312Z,1.70
2023-04-27T16:27:42.378Z,1.50
2023-04-27T16:30:09.921Z,1.50
2023-04-27T16:32:39.664Z,1.70
2023-04-27T16:35:11.558Z,2.08
2023-04-27T16:37:41.990Z,1.85
2023-04-27T16:40:10.003Z,2.00
2023-04-27T16:42:37.691Z,1.95
2023-04-27T16:45:10.658Z,2.17
2023-04-27T16:47:38.668Z,2.20
2023-04-27T16:50:08.642Z,2.95
2023-04-27T16:52:41.779Z,1.92
2023-04-27T16:55:09.445Z,1.35
2023-04-27T16:57:37.123Z,1.85
2023-04-27T17:00:09.465Z,2.35
2023-04-27T17:02:36.699Z,1.95
2023-04-27T17:05:04.302Z,2.05
2023-04-27T17:07:34.350Z,1.75
2023-04-27T17:10:02.639Z,2.42
2023-04-27T17:12:30.107Z,2.65
2023-04-27T17:14:57.253Z,1.77
2023-04-27T17:17:24.421Z,2.08
2023-04-27T17:19:51.605Z,1.85
2023-04-27T17:22:18.850Z,1.90
2023-04-27T17:24:46.158Z,1.70
2023-04-27T17:27:13.250Z,2.33
2023-04-27T17:29:40.644Z,3.20
2023-04-27T17:32:08.756Z,3.10
2023-04-27T17:34:36.151Z,4.80
2023-04-27T17:37:03.391Z,4.63
2023-04-27T17:39:30.591Z,5.93
2023-04-27T17:41:57.930Z,5.47
2023-04-27T17:44:25.215Z,5.97
2023-04-27T17:46:52.973Z,5.20
2023-04-27T17:49:20.575Z,4.97
2023-04-27T17:51:48.999Z,7.05
2023-04-27T17:54:16.241Z,6.22
2023-04-27T17:56:43.387Z,4.43
2023-04-27T17:59:10.604Z,5.60
2023-04-27T18:01:37.794Z,5.68
2023-04-27T18:04:07.262Z,5.10
2023-04-27T18:06:34.783Z,6.18
2023-04-27T18:09:02.135Z,4.60
2023-04-27T18:11:30.467Z,4.10
2023-04-27T18:14:00.164Z,4.43
2023-04-27T18:16:32.138Z,4.60
2023-04-27T18:19:05.810Z,4.28
2023-04-27T18:21:38.973Z,3.63
2023-04-27T18:26:42.068Z,3.58
2023-04-27T18:29:10.541Z,3.80
2023-04-27T18:31:41.195Z,9.60
2023-04-27T18:34:13.363Z,4.82
2023-04-27T18:36:46.359Z,4.35
2023-04-27T18:39:19.318Z,3.65
2023-04-27T18:41:51.235Z,3.58
2023-04-27T18:44:24.905Z,3.10
2023-04-27T18:46:56.338Z,3.05
2023-04-27T18:49:29.734Z,3.10
2023-04-27T18:54:26.877Z,3.65
2023-04-27T18:56:54.288Z,5.25
2023-04-27T18:59:25.122Z,7.22
2023-04-27T19:01:58.866Z,6.10
2023-04-27T19:04:32.273Z,7.47
2023-04-27T19:07:07.200Z,7.07
2023-04-27T19:09:39.257Z,7.85
2023-04-27T19:12:11.664Z,7.60
2023-04-27T19:14:44.926Z,7.70
2023-04-27T19:17:18.164Z,7.63
2023-04-27T19:19:51.460Z,7.45
2023-04-27T19:22:24.117Z,8.50
2023-04-27T19:24:56.604Z,8.98
2023-04-27T19:27:30.318Z,8.18
2023-04-27T19:30:02.965Z,8.77
2023-04-27T19:32:37.380Z,7.78
2023-04-27T19:35:13.600Z,9.15
2023-04-27T19:37:45.852Z,10.40
2023-04-27T19:40:20.832Z,9.30
2023-04-27T19:42:53.785Z,9.75
2023-04-27T19:47:58.570Z,10.88
2023-04-27T19:50:26.270Z,10.63
2023-04-27T19:52:56.156Z,10.57
2023-04-27T19:55:23.370Z,10.25
2023-04-27T19:57:52.255Z,10.63
2023-04-27T20:00:19.501Z,10.57
2023-04-27T20:02:46.824Z,10.43
2023-04-27T20:05:14.614Z,10.57
2023-04-27T20:07:42.595Z,9.90
2023-04-27T20:10:09.828Z,8.70
2023-04-27T20:12:52.128Z,8.00
2023-04-27T20:15:22.354Z,8.25
2023-04-27T20:17:49.582Z,7.97
2023-04-27T20:20:16.840Z,7.43
2023-04-27T20:22:43.939Z,7.10
2023-04-27T20:25:14.111Z,7.40
2023-04-27T20:27:41.544Z,8.50
2023-04-27T20:30:09.487Z,8.35
2023-04-27T20:32:37.146Z,7.65
2023-04-27T20:35:04.888Z,7.82
2023-04-27T20:37:35.799Z,7.22
2023-04-27T20:40:05.251Z,7.45
2023-04-27T20:42:32.451Z,7.72
2023-04-27T20:44:59.542Z,7.35
2023-04-27T20:47:26.743Z,8.30
2023-04-27T20:49:53.923Z,7.70
2023-04-27T20:52:20.970Z,7.82
2023-04-27T20:54:48.063Z,7.68
2023-04-27T20:57:15.208Z,7.13
2023-04-27T20:59:42.326Z,6.40
2023-04-27T21:02:09.627Z,6.90
2023-04-27T21:04:36.907Z,6.93
2023-04-27T21:07:04.209Z,7.00
2023-04-27T21:09:31.672Z,7.18
2023-04-27T21:11:58.826Z,6.80
2023-04-27T21:14:26.143Z,7.72
2023-04-27T21:16:53.367Z,6.55
2023-04-27T21:19:20.808Z,6.35
2023-04-27T21:21:48.065Z,6.45
2023-04-27T21:24:15.271Z,6.70
2023-04-27T21:26:42.517Z,7.00
2023-04-27T21:29:09.652Z,7.85
2023-04-27T21:31:37.111Z,6.38
2023-04-27T21:34:04.583Z,7.03
2023-04-27T21:36:33.307Z,6.63
2023-04-27T21:39:13.863Z,6.30
2023-04-27T21:41:41.349Z,7.18
2023-04-27T21:44:10.442Z,6.72
2023-04-27T21:46:37.725Z,6.65
2023-04-27T21:49:05.021Z,7.20
2023-04-27T21:51:35.163Z,6.22
2023-04-27T21:54:02.579Z,6.45
2023-04-27T21:56:29.881Z,6.35
2023-04-27T21:58:56.972Z,6.20
2023-04-27T22:01:24.419Z,6.20
2023-04-27T22:03:52.767Z,5.65
2023-04-27T22:06:20.771Z,6.18
2023-04-27T22:08:47.987Z,6.22
2023-04-27T22:11:15.144Z,6.30
2023-04-27T22:13:42.231Z,6.40
2023-04-27T22:16:10.566Z,6.68
2023-04-27T22:18:39.042Z,6.80
2023-04-27T22:21:06.337Z,6.90
2023-04-27T22:23:33.382Z,5.80
2023-04-27T22:26:00.706Z,7.13
2023-04-27T22:28:27.813Z,6.80
2023-04-27T22:30:56.203Z,6.43
2023-04-27T22:33:23.349Z,6.03
2023-04-27T22:35:50.580Z,5.95
2023-04-27T22:38:17.833Z,5.85
2023-04-27T22:40:44.913Z,6.55
2023-04-27T22:43:12.040Z,5.50
2023-04-27T22:45:39.317Z,6.40
2023-04-27T22:48:06.888Z,5.13
2023-04-27T22:50:34.616Z,5.97
2023-04-27T22:53:01.807Z,6.50
2023-04-27T22:55:28.901Z,6.53
2023-04-27T22:57:56.090Z,6.25
2023-04-27T23:00:23.214Z,6.75
2023-04-27T23:02:50.506Z,5.65
2023-04-27T23:05:17.893Z,6.55
2023-04-27T23:07:46.509Z,6.32
2023-04-27T23:10:15.392Z,6.60
2023-04-27T23:12:42.615Z,6.50
2023-04-27T23:15:10.337Z,5.63
2023-04-27T23:17:37.758Z,6.30
2023-04-27T23:20:24.205Z,5.30
2023-04-27T23:22:55.085Z,5.38
2023-04-27T23:25:22.337Z,5.45
2023-04-27T23:27:51.330Z,5.93
2023-04-27T23:30:19.840Z,5.82
2023-04-27T23:32:46.904Z,5.63
2023-04-27T23:35:14.195Z,5.57
2023-04-27T23:37:41.327Z,5.57
2023-04-27T23:40:09.047Z,5.43
2023-04-27T23:42:36.341Z,5.57
2023-04-27T23:45:04.371Z,5.03
2023-04-27T23:47:34.203Z,5.75
2023-04-27T23:50:02.486Z,5.47
2023-04-27T23:52:29.617Z,5.15
2023-04-27T23:54:58.161Z,5.50
2023-04-27T23:57:25.345Z,5.40
2023-04-27T23:59:52.527Z,5.45
